sensor_id;sensor_type;location;lat;lon;timestamp;P1;durP1;ratioP1;P2;durP2;ratioP2
41233;SDS011;26968;42.686;23.352;2023-02-03T00:00:19;13.10;;;5.25;;
41233;SDS011;26968;42.686;23.352;2023-02-03T00:02:45;12.40;;;5.07;;
41233;SDS011;26968;42.686;23.352;2023-02-03T00:05:10;8.45;;;4.70;;
41233;SDS011;26968;42.686;23.352;2023-02-03T00:07:36;8.70;;;4.40;;
41233;SDS011;26968;42.686;23.352;2023-02-03T00:10:03;9.50;;;4.78;;
41233;SDS011;26968;42.686;23.352;2023-02-03T00:12:29;11.20;;;5.72;;
41233;SDS011;26968;42.686;23.352;2023-02-03T00:14:55;11.50;;;5.15;;
41233;SDS011;26968;42.686;23.352;2023-02-03T00:17:20;9.93;;;5.75;;
41233;SDS011;26968;42.686;23.352;2023-02-03T00:19:46;8.93;;;5.22;;
41233;SDS011;26968;42.686;23.352;2023-02-03T00:22:11;11.45;;;5.03;;
41233;SDS011;26968;42.686;23.352;2023-02-03T00:24:37;9.27;;;4.88;;
41233;SDS011;26968;42.686;23.352;2023-02-03T00:27:02;7.32;;;4.68;;
41233;SDS011;26968;42.686;23.352;2023-02-03T00:29:28;10.45;;;5.78;;
41233;SDS011;26968;42.686;23.352;2023-02-03T00:31:54;11.30;;;5.13;;
41233;SDS011;26968;42.686;23.352;2023-02-03T00:34:19;9.07;;;5.07;;
41233;SDS011;26968;42.686;23.352;2023-02-03T00:36:45;14.23;;;5.57;;
41233;SDS011;26968;42.686;23.352;2023-02-03T00:39:12;10.75;;;5.80;;
41233;SDS011;26968;42.686;23.352;2023-02-03T00:41:39;9.30;;;5.13;;
41233;SDS011;26968;42.686;23.352;2023-02-03T00:44:04;10.68;;;5.38;;
41233;SDS011;26968;42.686;23.352;2023-02-03T00:46:30;12.15;;;6.63;;
41233;SDS011;26968;42.686;23.352;2023-02-03T00:48:55;9.77;;;5.85;;
41233;SDS011;26968;42.686;23.352;2023-02-03T00:51:20;11.15;;;5.88;;
41233;SDS011;26968;42.686;23.352;2023-02-03T00:53:46;11.30;;;5.68;;
41233;SDS011;26968;42.686;23.352;2023-02-03T00:56:12;16.65;;;6.07;;
41233;SDS011;26968;42.686;23.352;2023-02-03T00:58:40;10.70;;;5.65;;
41233;SDS011;26968;42.686;23.352;2023-02-03T01:01:06;11.93;;;6.47;;
41233;SDS011;26968;42.686;23.352;2023-02-03T01:03:32;10.10;;;6.25;;
41233;SDS011;26968;42.686;23.352;2023-02-03T01:08:53;10.98;;;5.35;;
41233;SDS011;26968;42.686;23.352;2023-02-03T01:11:20;9.68;;;5.60;;
41233;SDS011;26968;42.686;23.352;2023-02-03T01:13:47;9.45;;;5.45;;
41233;SDS011;26968;42.686;23.352;2023-02-03T01:16:14;8.70;;;4.80;;
41233;SDS011;26968;42.686;23.352;2023-02-03T01:18:42;9.90;;;4.88;;
41233;SDS011;26968;42.686;23.352;2023-02-03T01:21:09;9.48;;;4.50;;
41233;SDS011;26968;42.686;23.352;2023-02-03T01:23:37;8.65;;;4.72;;
41233;SDS011;26968;42.686;23.352;2023-02-03T01:26:05;9.15;;;4.90;;
41233;SDS011;26968;42.686;23.352;2023-02-03T01:28:32;6.78;;;3.88;;
41233;SDS011;26968;42.686;23.352;2023-02-03T01:31:07;11.25;;;4.82;;
41233;SDS011;26968;42.686;23.352;2023-02-03T01:33:36;6.63;;;3.92;;
41233;SDS011;26968;42.686;23.352;2023-02-03T01:36:04;6.38;;;3.33;;
41233;SDS011;26968;42.686;23.352;2023-02-03T01:38:33;7.32;;;3.40;;
41233;SDS011;26968;42.686;23.352;2023-02-03T01:40:59;5.28;;;3.10;;
41233;SDS011;26968;42.686;23.352;2023-02-03T01:43:28;6.03;;;3.17;;
41233;SDS011;26968;42.686;23.352;2023-02-03T01:45:58;6.80;;;3.78;;
41233;SDS011;26968;42.686;23.352;2023-02-03T01:48:28;5.75;;;3.40;;
41233;SDS011;26968;42.686;23.352;2023-02-03T01:50:57;5.90;;;3.65;;
41233;SDS011;26968;42.686;23.352;2023-02-03T01:53:24;6.45;;;3.13;;
41233;SDS011;26968;42.686;23.352;2023-02-03T01:55:49;5.05;;;3.08;;
41233;SDS011;26968;42.686;23.352;2023-02-03T01:58:22;5.00;;;2.80;;
41233;SDS011;26968;42.686;23.352;2023-02-03T02:00:52;4.35;;;2.85;;
41233;SDS011;26968;42.686;23.352;2023-02-03T02:03:22;10.50;;;3.55;;
41233;SDS011;26968;42.686;23.352;2023-02-03T02:05:59;3.42;;;2.78;;
41233;SDS011;26968;42.686;23.352;2023-02-03T02:08:28;4.07;;;2.35;;
41233;SDS011;26968;42.686;23.352;2023-02-03T02:10:57;7.80;;;3.03;;
41233;SDS011;26968;42.686;23.352;2023-02-03T02:13:24;5.88;;;3.05;;
41233;SDS011;26968;42.686;23.352;2023-02-03T02:34:36;4.10;;;3.20;;
41233;SDS011;26968;42.686;23.352;2023-02-03T02:40:23;5.55;;;3.53;;
41233;SDS011;26968;42.686;23.352;2023-02-03T02:50:59;6.38;;;3.65;;
41233;SDS011;26968;42.686;23.352;2023-02-03T02:53:28;4.85;;;3.47;;
41233;SDS011;26968;42.686;23.352;2023-02-03T02:58:27;7.15;;;3.75;;
41233;SDS011;26968;42.686;23.352;2023-02-03T03:00:54;3.90;;;3.42;;
41233;SDS011;26968;42.686;23.352;2023-02-03T03:03:21;8.30;;;3.65;;
41233;SDS011;26968;42.686;23.352;2023-02-03T03:05:52;6.60;;;3.50;;
41233;SDS011;26968;42.686;23.352;2023-02-03T03:08:29;6.78;;;3.67;;
41233;SDS011;26968;42.686;23.352;2023-02-03T03:11:05;6.20;;;2.78;;
41233;SDS011;26968;42.686;23.352;2023-02-03T03:13:32;5.00;;;3.28;;
41233;SDS011;26968;42.686;23.352;2023-02-03T03:16:01;6.78;;;3.42;;
41233;SDS011;26968;42.686;23.352;2023-02-03T03:18:30;6.47;;;3.25;;
41233;SDS011;26968;42.686;23.352;2023-02-03T03:21:00;6.05;;;3.13;;
41233;SDS011;26968;42.686;23.352;2023-02-03T03:23:34;5.80;;;3.15;;
41233;SDS011;26968;42.686;23.352;2023-02-03T03:28:51;6.65;;;3.58;;
41233;SDS011;26968;42.686;23.352;2023-02-03T03:31:22;7.20;;;3.35;;
41233;SDS011;26968;42.686;23.352;2023-02-03T03:33:48;9.25;;;3.70;;
41233;SDS011;26968;42.686;23.352;2023-02-03T03:36:18;7.15;;;3.50;;
41233;SDS011;26968;42.686;23.352;2023-02-03T03:38:54;7.28;;;3.35;;
41233;SDS011;26968;42.686;23.352;2023-02-03T03:41:28;4.88;;;3.00;;
41233;SDS011;26968;42.686;23.352;2023-02-03T03:44:01;2.97;;;2.45;;
41233;SDS011;26968;42.686;23.352;2023-02-03T03:46:31;4.35;;;3.00;;
41233;SDS011;26968;42.686;23.352;2023-02-03T03:49:04;7.30;;;3.13;;
41233;SDS011;26968;42.686;23.352;2023-02-03T03:51:48;10.15;;;3.92;;
41233;SDS011;26968;42.686;23.352;2023-02-03T03:54:19;5.00;;;2.75;;
41233;SDS011;26968;42.686;23.352;2023-02-03T03:56:59;6.78;;;2.80;;
41233;SDS011;26968;42.686;23.352;2023-02-03T03:59:31;5.32;;;2.78;;
41233;SDS011;26968;42.686;23.352;2023-02-03T04:02:01;6.45;;;2.45;;
41233;SDS011;26968;42.686;23.352;2023-02-03T04:04:28;8.00;;;3.03;;
41233;SDS011;26968;42.686;23.352;2023-02-03T04:06:56;5.78;;;2.75;;
41233;SDS011;26968;42.686;23.352;2023-02-03T04:09:21;9.77;;;3.40;;
41233;SDS011;26968;42.686;23.352;2023-02-03T04:11:47;4.05;;;2.75;;
41233;SDS011;26968;42.686;23.352;2023-02-03T04:14:32;4.90;;;3.40;;
41233;SDS011;26968;42.686;23.352;2023-02-03T04:16:59;5.60;;;3.05;;
41233;SDS011;26968;42.686;23.352;2023-02-03T04:19:25;7.30;;;3.92;;
41233;SDS011;26968;42.686;23.352;2023-02-03T04:21:51;6.05;;;3.00;;
41233;SDS011;26968;42.686;23.352;2023-02-03T04:24:17;8.40;;;3.55;;
41233;SDS011;26968;42.686;23.352;2023-02-03T04:26:42;4.82;;;3.10;;
41233;SDS011;26968;42.686;23.352;2023-02-03T04:29:08;5.45;;;3.30;;
41233;SDS011;26968;42.686;23.352;2023-02-03T04:31:33;4.65;;;3.38;;
41233;SDS011;26968;42.686;23.352;2023-02-03T04:33:59;4.93;;;2.72;;
41233;SDS011;26968;42.686;23.352;2023-02-03T04:36:24;4.50;;;3.20;;
41233;SDS011;26968;42.686;23.352;2023-02-03T04:38:50;9.25;;;3.08;;
41233;SDS011;26968;42.686;23.352;2023-02-03T04:41:16;6.90;;;3.20;;
41233;SDS011;26968;42.686;23.352;2023-02-03T04:43:42;6.53;;;3.13;;
41233;SDS011;26968;42.686;23.352;2023-02-03T04:46:08;5.80;;;3.25;;
41233;SDS011;26968;42.686;23.352;2023-02-03T04:48:34;7.55;;;3.50;;
41233;SDS011;26968;42.686;23.352;2023-02-03T04:51:00;7.82;;;3.30;;
41233;SDS011;26968;42.686;23.352;2023-02-03T04:53:28;4.80;;;3.33;;
41233;SDS011;26968;42.686;23.352;2023-02-03T04:55:53;6.38;;;3.38;;
41233;SDS011;26968;42.686;23.352;2023-02-03T04:58:19;13.40;;;4.03;;
41233;SDS011;26968;42.686;23.352;2023-02-03T05:00:44;10.80;;;3.45;;
41233;SDS011;26968;42.686;23.352;2023-02-03T05:03:10;6.70;;;3.60;;
41233;SDS011;26968;42.686;23.352;2023-02-03T05:05:35;8.18;;;3.80;;
41233;SDS011;26968;42.686;23.352;2023-02-03T05:08:01;5.38;;;3.47;;
41233;SDS011;26968;42.686;23.352;2023-02-03T05:10:26;4.18;;;3.38;;
41233;SDS011;26968;42.686;23.352;2023-02-03T05:12:51;4.75;;;3.70;;
41233;SDS011;26968;42.686;23.352;2023-02-03T05:15:17;6.75;;;3.75;;
41233;SDS011;26968;42.686;23.352;2023-02-03T05:17:42;12.65;;;4.40;;
41233;SDS011;26968;42.686;23.352;2023-02-03T05:20:08;9.43;;;4.10;;
41233;SDS011;26968;42.686;23.352;2023-02-03T05:22:34;7.50;;;3.53;;
41233;SDS011;26968;42.686;23.352;2023-02-03T05:25:00;11.82;;;3.97;;
41233;SDS011;26968;42.686;23.352;2023-02-03T05:27:26;5.00;;;3.85;;
41233;SDS011;26968;42.686;23.352;2023-02-03T05:29:51;4.28;;;3.75;;
41233;SDS011;26968;42.686;23.352;2023-02-03T05:32:16;12.18;;;4.53;;
41233;SDS011;26968;42.686;23.352;2023-02-03T05:34:42;7.82;;;4.05;;
41233;SDS011;26968;42.686;23.352;2023-02-03T05:37:07;6.40;;;4.10;;
41233;SDS011;26968;42.686;23.352;2023-02-03T05:39:33;9.00;;;4.57;;
41233;SDS011;26968;42.686;23.352;2023-02-03T05:41:58;9.20;;;4.50;;
41233;SDS011;26968;42.686;23.352;2023-02-03T05:44:25;5.07;;;4.10;;
41233;SDS011;26968;42.686;23.352;2023-02-03T05:46:52;6.63;;;4.28;;
41233;SDS011;26968;42.686;23.352;2023-02-03T05:49:19;5.38;;;3.28;;
41233;SDS011;26968;42.686;23.352;2023-02-03T05:51:45;5.55;;;4.00;;
41233;SDS011;26968;42.686;23.352;2023-02-03T05:54:11;7.10;;;5.50;;
41233;SDS011;26968;42.686;23.352;2023-02-03T05:56:37;14.90;;;5.63;;
41233;SDS011;26968;42.686;23.352;2023-02-03T05:59:03;6.57;;;4.80;;
41233;SDS011;26968;42.686;23.352;2023-02-03T06:01:41;12.15;;;5.00;;
41233;SDS011;26968;42.686;23.352;2023-02-03T06:04:07;6.45;;;4.30;;
41233;SDS011;26968;42.686;23.352;2023-02-03T06:06:32;5.15;;;4.13;;
41233;SDS011;26968;42.686;23.352;2023-02-03T06:09:02;8.32;;;4.32;;
41233;SDS011;26968;42.686;23.352;2023-02-03T06:11:29;5.82;;;4.25;;
41233;SDS011;26968;42.686;23.352;2023-02-03T06:13:55;10.70;;;4.63;;
41233;SDS011;26968;42.686;23.352;2023-02-03T06:16:23;8.48;;;4.93;;
41233;SDS011;26968;42.686;23.352;2023-02-03T06:18:52;6.57;;;4.80;;
41233;SDS011;26968;42.686;23.352;2023-02-03T06:21:19;5.75;;;3.47;;
41233;SDS011;26968;42.686;23.352;2023-02-03T06:23:45;9.57;;;4.30;;
41233;SDS011;26968;42.686;23.352;2023-02-03T06:26:11;10.00;;;4.78;;
41233;SDS011;26968;42.686;23.352;2023-02-03T06:28:36;8.10;;;4.65;;
41233;SDS011;26968;42.686;23.352;2023-02-03T06:31:05;9.38;;;4.40;;
41233;SDS011;26968;42.686;23.352;2023-02-03T06:33:31;7.50;;;5.25;;
41233;SDS011;26968;42.686;23.352;2023-02-03T06:35:56;8.27;;;5.30;;
41233;SDS011;26968;42.686;23.352;2023-02-03T06:38:22;11.98;;;5.80;;
41233;SDS011;26968;42.686;23.352;2023-02-03T06:40:47;14.02;;;4.78;;
41233;SDS011;26968;42.686;23.352;2023-02-03T06:43:13;10.98;;;5.97;;
41233;SDS011;26968;42.686;23.352;2023-02-03T06:45:39;11.38;;;4.53;;
41233;SDS011;26968;42.686;23.352;2023-02-03T06:48:06;7.75;;;3.75;;
41233;SDS011;26968;42.686;23.352;2023-02-03T06:50:32;9.70;;;4.57;;
41233;SDS011;26968;42.686;23.352;2023-02-03T06:52:57;4.72;;;3.45;;
41233;SDS011;26968;42.686;23.352;2023-02-03T06:55:23;7.97;;;3.97;;
41233;SDS011;26968;42.686;23.352;2023-02-03T06:57:48;15.50;;;3.83;;
41233;SDS011;26968;42.686;23.352;2023-02-03T07:00:15;6.03;;;3.70;;
41233;SDS011;26968;42.686;23.352;2023-02-03T07:02:41;7.22;;;3.90;;
41233;SDS011;26968;42.686;23.352;2023-02-03T07:05:07;8.98;;;3.28;;
41233;SDS011;26968;42.686;23.352;2023-02-03T07:07:33;15.85;;;4.55;;
41233;SDS011;26968;42.686;23.352;2023-02-03T07:09:59;15.32;;;6.80;;
41233;SDS011;26968;42.686;23.352;2023-02-03T07:12:25;7.85;;;3.53;;
41233;SDS011;26968;42.686;23.352;2023-02-03T07:14:50;7.53;;;3.50;;
41233;SDS011;26968;42.686;23.352;2023-02-03T07:17:16;8.02;;;3.90;;
41233;SDS011;26968;42.686;23.352;2023-02-03T07:19:41;10.20;;;4.10;;
41233;SDS011;26968;42.686;23.352;2023-02-03T07:22:07;13.38;;;4.47;;
41233;SDS011;26968;42.686;23.352;2023-02-03T07:24:34;9.30;;;4.32;;
41233;SDS011;26968;42.686;23.352;2023-02-03T07:27:00;9.35;;;4.50;;
41233;SDS011;26968;42.686;23.352;2023-02-03T07:29:25;11.60;;;4.03;;
41233;SDS011;26968;42.686;23.352;2023-02-03T07:31:50;11.05;;;4.25;;
41233;SDS011;26968;42.686;23.352;2023-02-03T07:34:16;15.35;;;4.90;;
41233;SDS011;26968;42.686;23.352;2023-02-03T07:36:42;8.18;;;5.00;;
41233;SDS011;26968;42.686;23.352;2023-02-03T07:39:08;16.98;;;5.22;;
41233;SDS011;26968;42.686;23.352;2023-02-03T07:41:33;9.68;;;4.47;;
41233;SDS011;26968;42.686;23.352;2023-02-03T07:43:59;11.15;;;3.70;;
41233;SDS011;26968;42.686;23.352;2023-02-03T07:46:24;7.40;;;4.10;;
41233;SDS011;26968;42.686;23.352;2023-02-03T07:48:49;9.70;;;3.97;;
41233;SDS011;26968;42.686;23.352;2023-02-03T07:51:15;9.00;;;3.17;;
41233;SDS011;26968;42.686;23.352;2023-02-03T07:53:40;7.10;;;3.60;;
41233;SDS011;26968;42.686;23.352;2023-02-03T07:56:06;12.02;;;4.00;;
41233;SDS011;26968;42.686;23.352;2023-02-03T07:58:31;11.85;;;3.78;;
41233;SDS011;26968;42.686;23.352;2023-02-03T08:00:57;11.35;;;4.00;;
41233;SDS011;26968;42.686;23.352;2023-02-03T08:03:23;7.78;;;3.15;;
41233;SDS011;26968;42.686;23.352;2023-02-03T08:05:49;5.82;;;3.33;;
41233;SDS011;26968;42.686;23.352;2023-02-03T08:08:14;6.80;;;3.15;;
41233;SDS011;26968;42.686;23.352;2023-02-03T08:10:40;6.40;;;3.50;;
41233;SDS011;26968;42.686;23.352;2023-02-03T08:13:06;5.45;;;3.58;;
41233;SDS011;26968;42.686;23.352;2023-02-03T08:15:31;7.55;;;3.47;;
41233;SDS011;26968;42.686;23.352;2023-02-03T08:17:56;13.85;;;4.05;;
41233;SDS011;26968;42.686;23.352;2023-02-03T08:20:22;10.98;;;3.67;;
41233;SDS011;26968;42.686;23.352;2023-02-03T08:22:47;6.63;;;3.33;;
41233;SDS011;26968;42.686;23.352;2023-02-03T08:25:13;4.57;;;2.80;;
41233;SDS011;26968;42.686;23.352;2023-02-03T08:27:38;9.02;;;3.22;;
41233;SDS011;26968;42.686;23.352;2023-02-03T08:30:05;8.55;;;4.40;;
41233;SDS011;26968;42.686;23.352;2023-02-03T08:32:32;7.65;;;3.53;;
41233;SDS011;26968;42.686;23.352;2023-02-03T08:34:58;9.43;;;2.85;;
41233;SDS011;26968;42.686;23.352;2023-02-03T08:37:23;6.03;;;3.17;;
41233;SDS011;26968;42.686;23.352;2023-02-03T08:39:49;17.33;;;4.35;;
41233;SDS011;26968;42.686;23.352;2023-02-03T08:42:15;7.20;;;3.38;;
41233;SDS011;26968;42.686;23.352;2023-02-03T08:44:41;6.53;;;3.13;;
41233;SDS011;26968;42.686;23.352;2023-02-03T08:47:08;11.95;;;2.67;;
41233;SDS011;26968;42.686;23.352;2023-02-03T08:49:34;9.07;;;3.15;;
41233;SDS011;26968;42.686;23.352;2023-02-03T08:52:03;6.40;;;2.80;;
41233;SDS011;26968;42.686;23.352;2023-02-03T08:54:29;5.10;;;2.53;;
41233;SDS011;26968;42.686;23.352;2023-02-03T08:56:56;8.38;;;3.38;;
41233;SDS011;26968;42.686;23.352;2023-02-03T08:59:22;5.05;;;2.30;;
41233;SDS011;26968;42.686;23.352;2023-02-03T09:01:47;8.98;;;2.92;;
41233;SDS011;26968;42.686;23.352;2023-02-03T09:04:13;10.25;;;2.80;;
41233;SDS011;26968;42.686;23.352;2023-02-03T09:06:43;7.35;;;2.85;;
41233;SDS011;26968;42.686;23.352;2023-02-03T09:09:12;14.85;;;4.80;;
41233;SDS011;26968;42.686;23.352;2023-02-03T09:11:39;5.82;;;3.20;;
41233;SDS011;26968;42.686;23.352;2023-02-03T09:14:05;8.05;;;3.67;;
41233;SDS011;26968;42.686;23.352;2023-02-03T09:16:31;5.15;;;3.08;;
41233;SDS011;26968;42.686;23.352;2023-02-03T09:18:56;6.53;;;2.75;;
41233;SDS011;26968;42.686;23.352;2023-02-03T09:21:21;11.55;;;3.67;;
41233;SDS011;26968;42.686;23.352;2023-02-03T09:23:48;5.75;;;2.90;;
41233;SDS011;26968;42.686;23.352;2023-02-03T09:26:14;5.38;;;3.03;;
41233;SDS011;26968;42.686;23.352;2023-02-03T09:28:40;5.72;;;2.80;;
41233;SDS011;26968;42.686;23.352;2023-02-03T09:31:07;7.97;;;3.67;;
41233;SDS011;26968;42.686;23.352;2023-02-03T09:33:37;5.80;;;3.33;;
41233;SDS011;26968;42.686;23.352;2023-02-03T09:36:03;7.20;;;2.85;;
41233;SDS011;26968;42.686;23.352;2023-02-03T09:38:30;4.82;;;2.60;;
41233;SDS011;26968;42.686;23.352;2023-02-03T09:41:00;5.43;;;2.58;;
41233;SDS011;26968;42.686;23.352;2023-02-03T09:43:31;5.90;;;2.40;;
41233;SDS011;26968;42.686;23.352;2023-02-03T09:46:15;10.77;;;2.35;;
41233;SDS011;26968;42.686;23.352;2023-02-03T09:48:46;2.47;;;1.87;;
41233;SDS011;26968;42.686;23.352;2023-02-03T09:51:30;2.85;;;2.47;;
41233;SDS011;26968;42.686;23.352;2023-02-03T09:54:00;5.80;;;3.38;;
41233;SDS011;26968;42.686;23.352;2023-02-03T09:56:35;3.45;;;1.75;;
41233;SDS011;26968;42.686;23.352;2023-02-03T09:59:01;6.18;;;2.63;;
41233;SDS011;26968;42.686;23.352;2023-02-03T10:01:29;4.53;;;2.67;;
41233;SDS011;26968;42.686;23.352;2023-02-03T10:04:12;4.90;;;2.75;;
41233;SDS011;26968;42.686;23.352;2023-02-03T10:07:16;11.10;;;2.70;;
41233;SDS011;26968;42.686;23.352;2023-02-03T10:18:07;7.85;;;2.78;;
41233;SDS011;26968;42.686;23.352;2023-02-03T10:23:15;6.25;;;2.63;;
41233;SDS011;26968;42.686;23.352;2023-02-03T10:25:47;4.43;;;2.72;;
41233;SDS011;26968;42.686;23.352;2023-02-03T10:28:20;11.18;;;2.95;;
41233;SDS011;26968;42.686;23.352;2023-02-03T10:30:48;9.82;;;3.03;;
41233;SDS011;26968;42.686;23.352;2023-02-03T10:33:18;6.78;;;2.60;;
41233;SDS011;26968;42.686;23.352;2023-02-03T10:38:39;3.92;;;1.88;;
41233;SDS011;26968;42.686;23.352;2023-02-03T10:41:12;5.15;;;2.13;;
41233;SDS011;26968;42.686;23.352;2023-02-03T10:43:43;5.60;;;2.40;;
41233;SDS011;26968;42.686;23.352;2023-02-03T10:48:45;4.38;;;2.20;;
41233;SDS011;26968;42.686;23.352;2023-02-03T10:51:35;4.45;;;2.13;;
41233;SDS011;26968;42.686;23.352;2023-02-03T10:54:25;6.75;;;2.50;;
41233;SDS011;26968;42.686;23.352;2023-02-03T10:56:53;8.80;;;2.42;;
41233;SDS011;26968;42.686;23.352;2023-02-03T10:59:26;7.25;;;2.90;;
41233;SDS011;26968;42.686;23.352;2023-02-03T11:01:54;7.78;;;2.22;;
41233;SDS011;26968;42.686;23.352;2023-02-03T11:04:27;4.47;;;2.00;;
41233;SDS011;26968;42.686;23.352;2023-02-03T11:06:59;2.85;;;1.95;;
41233;SDS011;26968;42.686;23.352;2023-02-03T11:09:30;5.32;;;1.90;;
41233;SDS011;26968;42.686;23.352;2023-02-03T11:12:05;4.00;;;2.08;;
41233;SDS011;26968;42.686;23.352;2023-02-03T11:17:29;8.95;;;2.55;;
41233;SDS011;26968;42.686;23.352;2023-02-03T11:20:17;5.15;;;2.58;;
41233;SDS011;26968;42.686;23.352;2023-02-03T11:22:42;3.35;;;2.00;;
41233;SDS011;26968;42.686;23.352;2023-02-03T11:25:19;4.97;;;1.85;;
41233;SDS011;26968;42.686;23.352;2023-02-03T11:27:51;8.02;;;2.25;;
41233;SDS011;26968;42.686;23.352;2023-02-03T11:30:27;12.13;;;2.50;;
41233;SDS011;26968;42.686;23.352;2023-02-03T11:32:56;4.93;;;1.95;;
41233;SDS011;26968;42.686;23.352;2023-02-03T11:35:26;3.97;;;2.30;;
41233;SDS011;26968;42.686;23.352;2023-02-03T11:37:55;3.15;;;1.88;;
41233;SDS011;26968;42.686;23.352;2023-02-03T11:47:55;7.97;;;2.55;;
41233;SDS011;26968;42.686;23.352;2023-02-03T12:00:58;7.55;;;2.72;;
41233;SDS011;26968;42.686;23.352;2023-02-03T12:12:07;7.93;;;2.15;;
41233;SDS011;26968;42.686;23.352;2023-02-03T12:23:22;4.75;;;1.45;;
41233;SDS011;26968;42.686;23.352;2023-02-03T12:26:30;3.40;;;1.50;;
41233;SDS011;26968;42.686;23.352;2023-02-03T12:34:23;3.33;;;1.95;;
41233;SDS011;26968;42.686;23.352;2023-02-03T12:36:52;4.82;;;2.30;;
41233;SDS011;26968;42.686;23.352;2023-02-03T12:44:58;4.93;;;2.25;;
41233;SDS011;26968;42.686;23.352;2023-02-03T12:47:30;2.97;;;2.00;;
41233;SDS011;26968;42.686;23.352;2023-02-03T12:50:04;4.80;;;2.22;;
41233;SDS011;26968;42.686;23.352;2023-02-03T12:53:01;3.88;;;2.05;;
41233;SDS011;26968;42.686;23.352;2023-02-03T13:03:26;4.53;;;2.15;;
41233;SDS011;26968;42.686;23.352;2023-02-03T13:06:05;4.72;;;2.22;;
41233;SDS011;26968;42.686;23.352;2023-02-03T13:13:57;6.80;;;3.00;;
41233;SDS011;26968;42.686;23.352;2023-02-03T13:16:29;4.53;;;2.42;;
41233;SDS011;26968;42.686;23.352;2023-02-03T13:19:14;4.57;;;2.42;;
41233;SDS011;26968;42.686;23.352;2023-02-03T13:21:46;5.55;;;2.45;;
41233;SDS011;26968;42.686;23.352;2023-02-03T13:24:15;4.83;;;2.50;;
41233;SDS011;26968;42.686;23.352;2023-02-03T13:26:50;7.20;;;2.80;;
41233;SDS011;26968;42.686;23.352;2023-02-03T13:32:33;5.95;;;2.78;;
41233;SDS011;26968;42.686;23.352;2023-02-03T13:43:03;6.22;;;3.22;;
41233;SDS011;26968;42.686;23.352;2023-02-03T13:45:37;4.22;;;2.78;;
41233;SDS011;26968;42.686;23.352;2023-02-03T13:48:08;6.68;;;2.90;;
41233;SDS011;26968;42.686;23.352;2023-02-03T13:50:39;3.10;;;2.40;;
41233;SDS011;26968;42.686;23.352;2023-02-03T13:53:06;5.00;;;2.90;;
41233;SDS011;26968;42.686;23.352;2023-02-03T13:55:44;4.90;;;3.00;;
41233;SDS011;26968;42.686;23.352;2023-02-03T13:58:19;11.88;;;2.88;;
41233;SDS011;26968;42.686;23.352;2023-02-03T14:00:57;9.10;;;3.63;;
41233;SDS011;26968;42.686;23.352;2023-02-03T14:03:46;8.18;;;2.97;;
41233;SDS011;26968;42.686;23.352;2023-02-03T14:06:55;8.82;;;3.45;;
41233;SDS011;26968;42.686;23.352;2023-02-03T14:14:55;6.35;;;3.15;;
41233;SDS011;26968;42.686;23.352;2023-02-03T14:20:00;11.10;;;4.43;;
41233;SDS011;26968;42.686;23.352;2023-02-03T14:22:27;6.03;;;3.60;;
41233;SDS011;26968;42.686;23.352;2023-02-03T14:24:53;9.15;;;4.22;;
41233;SDS011;26968;42.686;23.352;2023-02-03T14:27:24;7.05;;;3.97;;
41233;SDS011;26968;42.686;23.352;2023-02-03T14:30:05;11.98;;;4.03;;
41233;SDS011;26968;42.686;23.352;2023-02-03T14:32:51;9.93;;;3.75;;
41233;SDS011;26968;42.686;23.352;2023-02-03T14:38:09;9.32;;;3.60;;
41233;SDS011;26968;42.686;23.352;2023-02-03T14:46:03;11.95;;;5.65;;
41233;SDS011;26968;42.686;23.352;2023-02-03T14:54:12;5.75;;;2.85;;
41233;SDS011;26968;42.686;23.352;2023-02-03T15:02:13;5.18;;;2.50;;
41233;SDS011;26968;42.686;23.352;2023-02-03T15:04:43;3.72;;;2.10;;
41233;SDS011;26968;42.686;23.352;2023-02-03T15:10:19;7.63;;;2.80;;
41233;SDS011;26968;42.686;23.352;2023-02-03T15:15:14;9.60;;;2.90;;
41233;SDS011;26968;42.686;23.352;2023-02-03T15:17:48;6.30;;;2.90;;
41233;SDS011;26968;42.686;23.352;2023-02-03T15:22:55;7.47;;;4.20;;
41233;SDS011;26968;42.686;23.352;2023-02-03T15:25:21;7.53;;;4.03;;
41233;SDS011;26968;42.686;23.352;2023-02-03T15:27:49;11.77;;;4.47;;
41233;SDS011;26968;42.686;23.352;2023-02-03T15:32:42;10.68;;;5.13;;
41233;SDS011;26968;42.686;23.352;2023-02-03T15:35:26;12.45;;;5.47;;
41233;SDS011;26968;42.686;23.352;2023-02-03T15:37:58;20.38;;;5.38;;
41233;SDS011;26968;42.686;23.352;2023-02-03T15:40:34;10.98;;;4.85;;
41233;SDS011;26968;42.686;23.352;2023-02-03T15:43:06;12.35;;;5.18;;
41233;SDS011;26968;42.686;23.352;2023-02-03T15:46:08;9.52;;;5.55;;
41233;SDS011;26968;42.686;23.352;2023-02-03T15:48:49;12.05;;;6.28;;
41233;SDS011;26968;42.686;23.352;2023-02-03T15:54:46;15.18;;;6.30;;
41233;SDS011;26968;42.686;23.352;2023-02-03T15:57:27;7.60;;;4.37;;
41233;SDS011;26968;42.686;23.352;2023-02-03T15:59:54;14.75;;;5.65;;
41233;SDS011;26968;42.686;23.352;2023-02-03T16:02:37;14.23;;;4.82;;
41233;SDS011;26968;42.686;23.352;2023-02-03T16:05:23;11.43;;;4.80;;
41233;SDS011;26968;42.686;23.352;2023-02-03T16:07:52;11.13;;;5.22;;
41233;SDS011;26968;42.686;23.352;2023-02-03T16:10:30;13.75;;;6.80;;
41233;SDS011;26968;42.686;23.352;2023-02-03T16:16:01;13.80;;;6.43;;
41233;SDS011;26968;42.686;23.352;2023-02-03T16:18:32;15.05;;;6.63;;
41233;SDS011;26968;42.686;23.352;2023-02-03T16:21:00;12.82;;;5.80;;
41233;SDS011;26968;42.686;23.352;2023-02-03T16:23:27;10.55;;;5.75;;
41233;SDS011;26968;42.686;23.352;2023-02-03T16:26:15;11.40;;;5.88;;
41233;SDS011;26968;42.686;23.352;2023-02-03T16:28:43;15.40;;;6.93;;
41233;SDS011;26968;42.686;23.352;2023-02-03T16:31:39;9.43;;;5.00;;
41233;SDS011;26968;42.686;23.352;2023-02-03T16:34:26;9.15;;;5.05;;
41233;SDS011;26968;42.686;23.352;2023-02-03T16:37:11;19.70;;;5.80;;
41233;SDS011;26968;42.686;23.352;2023-02-03T16:40:19;10.65;;;5.53;;
41233;SDS011;26968;42.686;23.352;2023-02-03T16:43:08;15.20;;;6.70;;
41233;SDS011;26968;42.686;23.352;2023-02-03T16:45:56;14.82;;;6.90;;
41233;SDS011;26968;42.686;23.352;2023-02-03T16:48:41;14.52;;;6.63;;
41233;SDS011;26968;42.686;23.352;2023-02-03T16:51:28;10.80;;;5.20;;
41233;SDS011;26968;42.686;23.352;2023-02-03T16:54:04;10.82;;;4.80;;
41233;SDS011;26968;42.686;23.352;2023-02-03T16:56:30;14.07;;;5.57;;
41233;SDS011;26968;42.686;23.352;2023-02-03T16:58:56;11.43;;;5.85;;
41233;SDS011;26968;42.686;23.352;2023-02-03T17:01:24;10.90;;;6.22;;
41233;SDS011;26968;42.686;23.352;2023-02-03T17:03:50;9.45;;;5.10;;
41233;SDS011;26968;42.686;23.352;2023-02-03T17:06:15;10.45;;;4.80;;
41233;SDS011;26968;42.686;23.352;2023-02-03T17:08:41;12.20;;;5.43;;
41233;SDS011;26968;42.686;23.352;2023-02-03T17:11:08;11.00;;;5.13;;
41233;SDS011;26968;42.686;23.352;2023-02-03T17:13:39;11.55;;;5.97;;
41233;SDS011;26968;42.686;23.352;2023-02-03T17:16:09;15.23;;;5.18;;
41233;SDS011;26968;42.686;23.352;2023-02-03T17:18:42;10.88;;;4.50;;
41233;SDS011;26968;42.686;23.352;2023-02-03T17:21:09;15.13;;;5.25;;
41233;SDS011;26968;42.686;23.352;2023-02-03T17:23:36;9.27;;;4.65;;
41233;SDS011;26968;42.686;23.352;2023-02-03T17:26:03;17.17;;;6.40;;
41233;SDS011;26968;42.686;23.352;2023-02-03T17:28:29;15.88;;;7.20;;
41233;SDS011;26968;42.686;23.352;2023-02-03T17:30:58;15.57;;;6.68;;
41233;SDS011;26968;42.686;23.352;2023-02-03T17:33:29;21.38;;;8.88;;
41233;SDS011;26968;42.686;23.352;2023-02-03T17:36:14;22.48;;;9.45;;
41233;SDS011;26968;42.686;23.352;2023-02-03T17:38:46;20.63;;;9.63;;